Time;durP1;ratioP1;P1;durP2;ratioP2;P2;SDS_P1;SDS_P2;PMS_P1;PMS_P2;Temp;Humidity;BMP_temperature;BMP_pressure;BME280_temperature;BME280_humidity;BME280_pressure;Samples;Min_cycle;Max_cycle;Signal;HPM_P1;HPM_P2
2021/03/04 00:00:30;;;;;;;;;;;;;;;14.30;27.90;100883.59;5231834;27;34127;-88
2021/03/04 00:02:58;;;;;;;;;;;;;;;14.90;26.97;100888.03;5231210;27;32713;-85
2021/03/04 00:05:25;;;;;;;;;;;;;;;14.69;27.15;100878.13;5213692;27;33006;-84
2021/03/04 00:07:51;;;;;;;;;;;;;;;14.91;26.89;100882.72;5249447;27;35369;-86
2021/03/04 00:10:22;;;;;;;;;;;;;;;13.82;28.56;100874.41;5231564;27;32706;-87
2021/03/04 00:12:49;;;;;;;;;;;;;;;13.79;28.60;100874.50;5248861;27;35156;-88
2021/03/04 00:15:20;;;;;;;;;;;;;;;14.03;28.34;100862.50;5231068;27;34033;-86
2021/03/04 00:17:47;;;;;;;;;;;;;;;13.71;28.95;100871.22;5249152;27;33921;-87
2021/03/04 00:20:15;;;;;;;;;;;;;;;13.01;29.93;100861.53;5231598;27;33472;-87
2021/03/04 00:22:42;;;;;;;;;;;;;;;14.03;28.17;100852.00;5231300;27;34100;-85
2021/03/04 00:25:10;;;;;;;;;;;;;;;14.00;28.05;100857.34;5213562;27;33431;-87
2021/03/04 00:27:37;;;;;;;;;;;;;;;14.79;26.66;100849.00;5231478;27;35068;-84
2021/03/04 00:30:04;;;;;;;;;;;;;;;14.27;27.40;100844.34;5249247;27;34339;-87
2021/03/04 00:32:32;;;;;;;;;;;;;;;14.25;27.55;100843.53;5249013;27;32752;-87
2021/03/04 00:34:59;;;;;;;;;;;;;;;14.04;27.88;100837.16;5232554;27;35285;-87
2021/03/04 00:37:34;;;;;;;;;;;;;;;13.97;28.31;100835.59;5231310;27;35077;-85
2021/03/04 00:40:04;;;;;;;;;;;;;;;13.50;28.94;100825.50;5231454;27;33256;-86
2021/03/04 00:42:31;;;;;;;;;;;;;;;13.66;28.66;100826.81;5249128;27;32645;-85
2021/03/04 00:44:58;;;;;;;;;;;;;;;13.64;28.87;100818.16;5231155;27;34922;-84
2021/03/04 00:47:25;;;;;;;;;;;;;;;14.00;28.29;100817.16;5231592;27;34091;-86
2021/03/04 00:49:52;;;;;;;;;;;;;;;13.96;27.98;100818.16;5232971;27;33408;-85
2021/03/04 00:52:19;;;;;;;;;;;;;;;14.51;26.93;100820.94;5249422;27;33890;-84
2021/03/04 00:54:46;;;;;;;;;;;;;;;14.09;27.18;100811.66;5248980;27;34236;-86
2021/03/04 00:57:13;;;;;;;;;;;;;;;14.13;27.16;100809.81;5232614;27;33780;-87
2021/03/04 00:59:39;;;;;;;;;;;;;;;12.78;29.30;100810.63;5249228;27;34720;-87
2021/03/04 01:02:06;;;;;;;;;;;;;;;11.41;32.07;100801.16;5249150;27;34352;-86
2021/03/04 01:04:33;;;;;;;;;;;;;;;12.56;30.41;100805.00;5249291;27;34826;-85
2021/03/04 01:07:00;;;;;;;;;;;;;;;12.85;29.73;100793.88;5231544;27;32652;-88
2021/03/04 01:09:28;;;;;;;;;;;;;;;13.39;29.11;100796.09;5231629;27;32315;-87
2021/03/04 01:11:55;;;;;;;;;;;;;;;13.74;28.50;100786.47;5232687;27;34083;-87
2021/03/04 01:14:21;;;;;;;;;;;;;;;13.56;28.60;100783.44;5249123;27;33916;-86
2021/03/04 01:16:49;;;;;;;;;;;;;;;13.73;28.28;100785.59;5231640;27;33864;-87
2021/03/04 01:19:16;;;;;;;;;;;;;;;13.95;27.95;100777.16;5248845;27;33507;-86
2021/03/04 01:21:42;;;;;;;;;;;;;;;13.75;28.26;100777.69;5249241;27;34101;-88
2021/03/04 01:24:10;;;;;;;;;;;;;;;13.46;28.56;100781.97;5231583;27;35309;-87
2021/03/04 01:26:37;;;;;;;;;;;;;;;13.87;28.09;100774.75;5231398;27;32665;-87
2021/03/04 01:29:04;;;;;;;;;;;;;;;14.49;27.01;100772.94;5233307;27;32905;-86
2021/03/04 01:31:31;;;;;;;;;;;;;;;14.11;27.53;100764.47;5216384;27;32660;-83
2021/03/04 01:33:58;;;;;;;;;;;;;;;13.13;28.98;100751.34;5242094;27;33918;-83
2021/03/04 01:36:25;;;;;;;;;;;;;;;13.42;28.69;100757.62;5240329;27;34036;-83
2021/03/04 01:38:52;;;;;;;;;;;;;;;13.77;28.11;100754.94;5231902;27;33216;-87
2021/03/04 01:41:19;;;;;;;;;;;;;;;13.60;28.46;100755.41;5231148;27;34843;-88
2021/03/04 01:43:46;;;;;;;;;;;;;;;14.39;27.08;100747.91;5231075;27;33190;-88
2021/03/04 01:46:13;;;;;;;;;;;;;;;14.01;27.62;100745.53;5231181;27;33836;-86
2021/03/04 01:48:52;;;;;;;;;;;;;;;13.45;28.77;100740.97;5231270;27;33950;-85
2021/03/04 01:51:19;;;;;;;;;;;;;;;13.95;28.00;100738.72;5231297;27;35143;-88
2021/03/04 01:53:46;;;;;;;;;;;;;;;13.91;28.00;100737.09;5232364;27;34479;-87
2021/03/04 01:56:13;;;;;;;;;;;;;;;14.08;27.77;100733.97;5230901;27;34141;-86
2021/03/04 01:58:40;;;;;;;;;;;;;;;14.45;27.50;100724.13;5248533;27;33279;-84
2021/03/04 02:04:31;;;;;;;;;;;;;;;13.62;28.86;100720.44;5232029;27;34029;-86
2021/03/04 02:07:02;;;;;;;;;;;;;;;14.24;27.88;100717.75;5230787;27;34332;-86
2021/03/04 02:09:29;;;;;;;;;;;;;;;14.75;27.15;100721.47;5231220;27;34304;-87
2021/03/04 02:12:07;;;;;;;;;;;;;;;14.69;27.12;100712.88;5231411;27;34824;-87
2021/03/04 02:14:36;;;;;;;;;;;;;;;14.08;28.29;100720.88;5230673;27;34215;-87
2021/03/04 02:17:04;;;;;;;;;;;;;;;13.84;28.66;100714.56;5230954;27;34958;-85
2021/03/04 02:19:38;;;;;;;;;;;;;;;13.53;29.21;100712.81;5248479;27;32943;-87
2021/03/04 02:22:24;;;;;;;;;;;;;;;13.60;29.25;100709.16;5230840;27;33618;-86
2021/03/04 02:25:06;;;;;;;;;;;;;;;13.81;28.86;100698.94;5212954;27;33545;-86
2021/03/04 02:27:36;;;;;;;;;;;;;;;13.21;29.94;100701.44;5231140;27;33700;-87
2021/03/04 02:30:03;;;;;;;;;;;;;;;14.17;28.37;100701.37;5248482;27;33195;-87
2021/03/04 02:32:30;;;;;;;;;;;;;;;13.78;29.04;100694.66;5212957;27;33072;-85
2021/03/04 02:34:59;;;;;;;;;;;;;;;13.95;28.76;100696.78;5231103;27;34229;-88
2021/03/04 02:37:28;;;;;;;;;;;;;;;14.61;27.82;100696.50;5230598;27;34998;-85
2021/03/04 02:39:55;;;;;;;;;;;;;;;14.47;27.96;100690.84;5230568;27;32122;-85
2021/03/04 02:42:23;;;;;;;;;;;;;;;14.69;27.63;100686.66;5230487;27;32295;-87
2021/03/04 02:44:53;;;;;;;;;;;;;;;13.99;28.58;100695.78;5230796;27;34158;-87
2021/03/04 02:47:21;;;;;;;;;;;;;;;13.98;28.81;100686.22;5230899;27;34859;-86
2021/03/04 02:49:50;;;;;;;;;;;;;;;13.76;29.24;100688.63;5249930;27;34228;-84
2021/03/04 02:52:17;;;;;;;;;;;;;;;13.99;28.78;100687.94;5240018;27;34207;-84
2021/03/04 02:54:45;;;;;;;;;;;;;;;14.17;28.57;100685.66;5239776;27;34747;-83
2021/03/04 02:57:12;;;;;;;;;;;;;;;14.42;28.20;100679.66;5230406;27;33888;-86
2021/03/04 02:59:39;;;;;;;;;;;;;;;14.62;27.88;100682.47;5230565;27;32050;-88
2021/03/04 03:02:07;;;;;;;;;;;;;;;14.80;27.60;100673.19;5230462;27;33746;-86
2021/03/04 03:04:35;;;;;;;;;;;;;;;14.81;27.45;100668.78;5248179;27;34280;-85
2021/03/04 03:07:02;;;;;;;;;;;;;;;14.59;27.92;100669.47;5248631;27;35055;-87
2021/03/04 03:09:29;;;;;;;;;;;;;;;13.82;29.10;100669.25;5231104;27;34011;-88
2021/03/04 03:11:57;;;;;;;;;;;;;;;13.51;29.62;100676.22;5230990;27;34754;-84
2021/03/04 03:14:25;;;;;;;;;;;;;;;13.34;30.02;100663.56;5231101;27;33613;-87
2021/03/04 03:16:52;;;;;;;;;;;;;;;13.62;29.70;100668.06;5231133;27;34956;-86
2021/03/04 03:19:19;;;;;;;;;;;;;;;14.12;28.88;100672.69;5248666;27;33315;-86
2021/03/04 03:21:46;;;;;;;;;;;;;;;14.59;28.09;100658.97;5231200;27;33232;-87
2021/03/04 03:24:13;;;;;;;;;;;;;;;14.14;28.75;100656.94;5213385;27;33476;-88
2021/03/04 03:26:40;;;;;;;;;;;;;;;13.62;29.62;100667.22;5231428;27;32818;-86
2021/03/04 03:29:10;;;;;;;;;;;;;;;14.16;28.77;100644.63;5231419;27;33070;-86
2021/03/04 03:31:37;;;;;;;;;;;;;;;14.47;28.28;100643.66;5231167;27;33020;-86
2021/03/04 03:34:04;;;;;;;;;;;;;;;14.05;28.87;100649.34;5231325;27;32741;-86
2021/03/04 03:36:33;;;;;;;;;;;;;;;14.27;28.57;100645.16;5249105;27;35294;-88
2021/03/04 03:39:01;;;;;;;;;;;;;;;13.46;29.77;100645.84;5231372;27;34238;-85
2021/03/04 03:41:28;;;;;;;;;;;;;;;14.07;28.86;100639.69;5213896;27;33413;-87
2021/03/04 03:43:55;;;;;;;;;;;;;;;14.51;28.14;100640.87;5231461;27;33787;-87
2021/03/04 03:46:22;;;;;;;;;;;;;;;14.24;28.58;100637.41;5232810;27;34167;-87
2021/03/04 03:48:50;;;;;;;;;;;;;;;14.25;28.50;100646.94;5231258;27;31971;-84
2021/03/04 03:51:17;;;;;;;;;;;;;;;13.97;29.06;100642.59;5213561;27;32754;-88
2021/03/04 03:53:44;;;;;;;;;;;;;;;13.36;30.04;100637.37;5231350;27;35110;-87
2021/03/04 03:56:11;;;;;;;;;;;;;;;14.31;28.47;100633.66;5231200;27;34358;-88
2021/03/04 03:58:38;;;;;;;;;;;;;;;14.29;28.45;100638.09;5231710;27;33346;-87
2021/03/04 04:01:05;;;;;;;;;;;;;;;13.95;29.03;100633.06;5231189;27;33377;-88
2021/03/04 04:03:32;;;;;;;;;;;;;;;14.16;28.77;100636.75;5231168;27;33750;-87
2021/03/04 04:05:59;;;;;;;;;;;;;;;14.22;28.70;100631.31;5250893;27;34203;-84
2021/03/04 04:08:28;;;;;;;;;;;;;;;14.35;28.45;100616.91;5236940;27;34400;-85
2021/03/04 04:10:55;;;;;;;;;;;;;;;14.32;28.52;100621.44;5251814;27;34862;-85
2021/03/04 04:13:22;;;;;;;;;;;;;;;14.35;28.28;100616.06;5213856;27;33983;-87
2021/03/04 04:15:49;;;;;;;;;;;;;;;13.90;28.88;100617.47;5231003;27;32968;-88
2021/03/04 04:18:17;;;;;;;;;;;;;;;14.43;28.13;100607.97;5230685;27;32929;-88
2021/03/04 04:20:48;;;;;;;;;;;;;;;13.82;29.09;100622.09;5231131;27;34164;-88
2021/03/04 04:23:15;;;;;;;;;;;;;;;13.42;30.03;100616.28;5231371;27;33476;-86
2021/03/04 04:25:46;;;;;;;;;;;;;;;13.57;29.83;100601.88;5249045;27;34600;-86
2021/03/04 04:28:14;;;;;;;;;;;;;;;13.68;29.55;100604.16;5231447;27;31842;-87
2021/03/04 04:30:41;;;;;;;;;;;;;;;14.22;28.73;100599.87;5230947;27;33818;-86
2021/03/04 04:33:09;;;;;;;;;;;;;;;13.95;29.30;100601.62;5231114;27;33767;-88
2021/03/04 04:35:36;;;;;;;;;;;;;;;13.83;29.32;100602.87;5231106;27;34191;-87
2021/03/04 04:38:03;;;;;;;;;;;;;;;13.66;29.68;100598.97;5231094;27;33142;-88
2021/03/04 04:40:30;;;;;;;;;;;;;;;13.64;29.88;100599.94;5230991;27;34358;-88
2021/03/04 04:42:57;;;;;;;;;;;;;;;14.20;28.93;100588.59;5231236;27;35137;-86
2021/03/04 04:45:24;;;;;;;;;;;;;;;14.22;28.92;100584.16;5230812;27;32741;-89
2021/03/04 04:47:51;;;;;;;;;;;;;;;13.60;29.79;100585.22;5231499;27;31915;-88
2021/03/04 04:50:18;;;;;;;;;;;;;;;13.72;29.68;100583.97;5213798;27;33997;-87
2021/03/04 04:52:45;;;;;;;;;;;;;;;13.76;29.68;100585.59;5248953;27;34126;-88
2021/03/04 04:55:12;;;;;;;;;;;;;;;13.59;29.76;100584.38;5231014;27;33941;-89
2021/03/04 04:57:39;;;;;;;;;;;;;;;13.41;30.06;100585.75;5248951;27;33287;-86
2021/03/04 05:00:07;;;;;;;;;;;;;;;12.84;31.10;100584.69;5231078;27;34774;-87
2021/03/04 05:02:34;;;;;;;;;;;;;;;13.35;30.26;100578.91;5234188;27;35064;-88
2021/03/04 05:05:05;;;;;;;;;;;;;;;13.39;30.38;100568.38;5213882;27;33816;-86
2021/03/04 05:07:33;;;;;;;;;;;;;;;13.51;29.93;100573.28;5248788;27;31939;-86
2021/03/04 05:10:00;;;;;;;;;;;;;;;13.07;30.55;100570.13;5230610;27;34137;-86
2021/03/04 05:12:27;;;;;;;;;;;;;;;13.28;30.31;100571.28;5230777;27;33256;-87
2021/03/04 05:14:54;;;;;;;;;;;;;;;13.13;30.56;100565.59;5248484;27;34725;-87
2021/03/04 05:17:22;;;;;;;;;;;;;;;13.35;30.43;100571.06;5213586;27;32444;-87
2021/03/04 05:19:49;;;;;;;;;;;;;;;13.23;30.45;100563.56;5231388;27;34253;-87
2021/03/04 05:22:16;;;;;;;;;;;;;;;12.93;31.05;100554.84;5231468;27;32975;-87
2021/03/04 05:24:44;;;;;;;;;;;;;;;13.33;30.48;100545.84;5236001;27;34394;-86
2021/03/04 05:27:11;;;;;;;;;;;;;;;13.81;29.63;100544.41;5238147;27;33280;-84
2021/03/04 05:29:38;;;;;;;;;;;;;;;14.03;29.30;100548.06;5252514;27;34139;-89
2021/03/04 05:32:05;;;;;;;;;;;;;;;13.09;30.97;100542.19;5249221;27;33765;-85
2021/03/04 05:34:33;;;;;;;;;;;;;;;13.83;29.73;100538.22;5231454;27;32932;-87
2021/03/04 05:37:01;;;;;;;;;;;;;;;14.53;28.36;100534.19;5230655;27;33195;-86
2021/03/04 05:39:28;;;;;;;;;;;;;;;14.23;28.79;100533.44;5213674;27;33204;-86
2021/03/04 05:41:55;;;;;;;;;;;;;;;13.78;29.40;100529.66;5249173;27;33113;-87
2021/03/04 05:44:22;;;;;;;;;;;;;;;14.22;28.83;100531.72;5231390;27;32944;-87
2021/03/04 05:46:49;;;;;;;;;;;;;;;13.89;29.34;100531.94;5231863;27;34044;-87
2021/03/04 05:49:18;;;;;;;;;;;;;;;13.88;29.45;100527.63;5231662;27;34821;-86
2021/03/04 05:52:01;;;;;;;;;;;;;;;13.67;29.89;100524.75;5247307;27;34185;-85
2021/03/04 05:54:28;;;;;;;;;;;;;;;13.50;30.43;100532.28;5231436;27;32854;-89
2021/03/04 05:56:58;;;;;;;;;;;;;;;13.96;29.74;100532.59;5231490;27;32843;-86
2021/03/04 05:59:25;;;;;;;;;;;;;;;14.29;29.18;100535.87;5231505;27;34762;-86
2021/03/04 06:01:52;;;;;;;;;;;;;;;13.97;29.75;100539.53;5232521;27;34161;-86
2021/03/04 06:04:20;;;;;;;;;;;;;;;13.86;29.82;100535.50;5233722;27;34480;-88
2021/03/04 06:06:47;;;;;;;;;;;;;;;13.69;30.08;100538.69;5232574;27;34044;-87
2021/03/04 06:09:14;;;;;;;;;;;;;;;14.48;28.81;100537.88;5231390;27;34308;-88
2021/03/04 06:11:41;;;;;;;;;;;;;;;14.42;28.77;100528.44;5231859;27;32999;-89
2021/03/04 06:14:08;;;;;;;;;;;;;;;14.73;28.23;100532.66;5231482;27;35074;-88
2021/03/04 06:16:35;;;;;;;;;;;;;;;14.36;28.78;100523.41;5230985;27;33468;-86
2021/03/04 06:19:03;;;;;;;;;;;;;;;13.98;29.44;100529.00;5232060;27;32001;-86
2021/03/04 06:21:30;;;;;;;;;;;;;;;14.24;28.87;100526.44;5231393;27;34192;-87
2021/03/04 06:23:57;;;;;;;;;;;;;;;14.31;29.12;100522.72;5231324;27;34223;-89
2021/03/04 06:26:38;;;;;;;;;;;;;;;14.08;29.40;100528.72;5248965;27;32113;-90
2021/03/04 06:29:14;;;;;;;;;;;;;;;14.79;28.28;100523.72;5231281;27;33853;-86
2021/03/04 06:31:41;;;;;;;;;;;;;;;14.92;27.83;100524.97;5231251;27;34633;-88
2021/03/04 06:34:22;;;;;;;;;;;;;;;14.82;27.70;100526.22;5251684;27;34074;-86
2021/03/04 06:36:59;;;;;;;;;;;;;;;14.72;27.39;100524.81;5237673;27;32426;-86
2021/03/04 06:39:26;;;;;;;;;;;;;;;15.39;26.49;100525.88;5240102;27;34196;-85
2021/03/04 06:42:01;;;;;;;;;;;;;;;15.06;26.95;100521.81;5261465;27;34599;-84
2021/03/04 06:44:28;;;;;;;;;;;;;;;15.55;26.52;100520.88;5243799;27;35215;-87
2021/03/04 06:47:07;;;;;;;;;;;;;;;15.90;25.96;100527.41;5249470;27;34535;-87
2021/03/04 06:49:35;;;;;;;;;;;;;;;16.23;25.70;100516.38;5231867;27;33693;-86
2021/03/04 06:52:03;;;;;;;;;;;;;;;16.03;25.99;100517.22;5249247;27;34650;-88
2021/03/04 06:54:37;;;;;;;;;;;;;;;15.64;26.57;100515.28;5231699;27;32694;-89
2021/03/04 06:57:10;;;;;;;;;;;;;;;16.06;25.93;100511.84;5197187;27;32156;-87
2021/03/04 06:59:38;;;;;;;;;;;;;;;16.71;24.97;100511.69;5233503;27;33692;-86
2021/03/04 07:02:06;;;;;;;;;;;;;;;16.26;25.86;100508.37;5230898;27;35041;-88
2021/03/04 07:04:35;;;;;;;;;;;;;;;16.62;25.49;100505.09;5248620;27;35947;-88
2021/03/04 07:16:51;;;;;;;;;;;;;;;16.98;24.79;100512.28;5295367;27;34565;-93
2021/03/04 07:19:19;;;;;;;;;;;;;;;16.76;24.69;100508.88;5267409;27;32694;-93
2021/03/04 07:21:48;;;;;;;;;;;;;;;16.78;24.48;100501.75;5264134;27;33112;-92
2021/03/04 07:24:36;;;;;;;;;;;;;;;17.40;23.60;100504.25;5270523;27;33158;-93
2021/03/04 07:27:23;;;;;;;;;;;;;;;17.00;24.02;100497.28;5285846;27;33792;-93
2021/03/04 07:29:55;;;;;;;;;;;;;;;16.68;24.47;100501.31;5284344;27;33219;-93
2021/03/04 07:32:23;;;;;;;;;;;;;;;16.92;24.27;100496.75;5267541;27;32660;-92
2021/03/04 07:34:51;;;;;;;;;;;;;;;16.69;24.38;100496.00;5277808;27;33550;-91
2021/03/04 07:37:18;;;;;;;;;;;;;;;16.78;24.20;100496.50;5275420;27;34538;-90
2021/03/04 07:39:48;;;;;;;;;;;;;;;17.52;23.35;100480.81;5278877;27;34020;-91
2021/03/04 07:42:35;;;;;;;;;;;;;;;17.59;23.29;100478.75;5277644;27;34602;-91
2021/03/04 07:45:15;;;;;;;;;;;;;;;17.70;23.16;100475.59;5292804;27;34516;-88
2021/03/04 07:47:42;;;;;;;;;;;;;;;17.94;22.95;100478.81;5285625;27;33714;-93
2021/03/04 07:50:34;;;;;;;;;;;;;;;17.97;22.85;100472.53;5261709;27;33996;-93
2021/03/04 07:53:33;;;;;;;;;;;;;;;18.10;22.42;100465.72;5265189;27;20033;-93
2021/03/04 07:56:24;;;;;;;;;;;;;;;18.34;22.12;100474.13;5245384;27;34932;-94
2021/03/04 07:58:52;;;;;;;;;;;;;;;17.70;22.98;100468.50;5238828;27;32909;-93
2021/03/04 08:01:32;;;;;;;;;;;;;;;18.21;22.08;100462.53;5255129;27;32649;-92
2021/03/04 08:04:02;;;;;;;;;;;;;;;17.91;22.54;100471.03;5237175;27;33000;-91
2021/03/04 08:06:42;;;;;;;;;;;;;;;16.47;24.21;100471.56;5221244;27;33920;-92
2021/03/04 08:09:09;;;;;;;;;;;;;;;17.33;23.20;100465.03;5238829;27;34561;-93
2021/03/04 08:11:37;;;;;;;;;;;;;;;17.41;23.10;100464.66;5240283;27;32923;-93
2021/03/04 08:14:15;;;;;;;;;;;;;;;18.25;22.20;100469.34;5239418;27;32873;-92
2021/03/04 08:16:43;;;;;;;;;;;;;;;18.25;22.30;100460.59;5219609;27;33760;-93
2021/03/04 08:19:10;;;;;;;;;;;;;;;17.15;23.80;100458.00;5236326;27;33159;-91
2021/03/04 08:21:41;;;;;;;;;;;;;;;17.07;23.92;100455.75;5235396;27;33324;-91
2021/03/04 08:24:12;;;;;;;;;;;;;;;17.74;23.14;100453.41;5236538;27;32948;-93
2021/03/04 08:26:39;;;;;;;;;;;;;;;18.30;22.51;100450.66;5236341;27;32678;-92
2021/03/04 08:29:08;;;;;;;;;;;;;;;18.77;21.93;100443.78;5236982;27;33073;-92
2021/03/04 08:31:50;;;;;;;;;;;;;;;17.99;22.83;100444.31;5235898;27;32330;-90
2021/03/04 08:34:18;;;;;;;;;;;;;;;18.47;22.33;100442.69;5255124;27;34313;-92
2021/03/04 08:36:47;;;;;;;;;;;;;;;18.85;22.04;100437.16;5237529;27;33982;-92
2021/03/04 08:39:15;;;;;;;;;;;;;;;17.82;23.58;100439.88;5253132;27;34449;-93
2021/03/04 08:41:42;;;;;;;;;;;;;;;18.52;22.71;100435.41;5237389;27;32588;-92
2021/03/04 08:44:11;;;;;;;;;;;;;;;17.91;23.60;100443.81;5252564;27;33741;-92
2021/03/04 08:46:42;;;;;;;;;;;;;;;17.79;23.85;100432.97;5234835;27;33890;-91
2021/03/04 08:49:14;;;;;;;;;;;;;;;18.31;23.23;100433.91;5233346;27;32846;-87
2021/03/04 08:51:44;;;;;;;;;;;;;;;18.78;22.66;100430.50;5232661;27;32633;-94
2021/03/04 08:54:27;;;;;;;;;;;;;;;18.09;23.79;100432.34;5218200;27;33035;-93
2021/03/04 08:57:05;;;;;;;;;;;;;;;18.22;23.81;100426.47;5233933;27;33859;-95
2021/03/04 08:59:33;;;;;;;;;;;;;;;18.60;23.50;100428.84;5232307;27;33050;-95
2021/03/04 09:02:12;;;;;;;;;;;;;;;18.21;24.06;100422.12;5233996;27;33549;-95
2021/03/04 09:04:45;;;;;;;;;;;;;;;17.32;25.49;100415.94;5233762;27;32443;-94
2021/03/04 09:07:13;;;;;;;;;;;;;;;17.49;25.31;100415.09;5252782;27;32820;-92
2021/03/04 09:09:40;;;;;;;;;;;;;;;17.99;24.85;100421.44;5231218;27;33262;-90
2021/03/04 09:12:08;;;;;;;;;;;;;;;18.25;24.50;100418.38;5213995;27;33476;-93
2021/03/04 09:14:36;;;;;;;;;;;;;;;18.50;24.22;100410.03;5232571;27;32829;-94
2021/03/04 09:17:03;;;;;;;;;;;;;;;17.86;25.04;100404.50;5233240;27;33098;-92
2021/03/04 09:19:40;;;;;;;;;;;;;;;18.06;24.84;100410.59;5253967;27;34074;-94
2021/03/04 09:22:10;;;;;;;;;;;;;;;18.22;24.67;100403.56;5256750;27;32135;-94
2021/03/04 09:24:39;;;;;;;;;;;;;;;18.84;23.82;100400.28;5223732;27;34456;-93
2021/03/04 09:27:07;;;;;;;;;;;;;;;18.81;23.84;100393.41;5241498;27;32818;-93
2021/03/04 09:29:41;;;;;;;;;;;;;;;17.59;25.63;100388.28;5238747;27;33277;-94
2021/03/04 09:32:09;;;;;;;;;;;;;;;18.56;24.22;100388.59;5238654;27;32636;-94
2021/03/04 09:34:43;;;;;;;;;;;;;;;16.65;26.92;100381.28;5236094;27;33570;-92
2021/03/04 09:37:12;;;;;;;;;;;;;;;18.09;24.96;100376.13;5253796;27;34444;-95
2021/03/04 09:39:44;;;;;;;;;;;;;;;18.59;24.44;100377.88;5236566;27;33285;-90
2021/03/04 09:42:16;;;;;;;;;;;;;;;18.26;25.01;100377.91;5235421;27;32220;-92
2021/03/04 09:44:51;;;;;;;;;;;;;;;18.80;24.23;100378.47;5233933;27;33054;-95
2021/03/04 09:47:26;;;;;;;;;;;;;;;18.98;23.92;100373.16;5231903;27;33269;-93
2021/03/04 09:49:59;;;;;;;;;;;;;;;18.29;24.86;100365.38;5232799;27;33265;-94
2021/03/04 09:52:29;;;;;;;;;;;;;;;18.80;24.29;100370.56;5232287;27;32179;-93
2021/03/04 09:55:15;;;;;;;;;;;;;;;18.85;24.38;100365.87;5232057;27;32946;-92
2021/03/04 09:57:44;;;;;;;;;;;;;;;19.16;24.04;100364.19;5215315;27;34199;-93
2021/03/04 10:00:22;;;;;;;;;;;;;;;19.79;23.46;100358.81;5250372;27;33234;-93
2021/03/04 10:02:51;;;;;;;;;;;;;;;19.28;23.94;100365.28;5249482;27;31841;-90
2021/03/04 10:05:27;;;;;;;;;;;;;;;19.37;23.82;100363.88;5233215;27;32892;-91
2021/03/04 10:08:01;;;;;;;;;;;;;;;18.76;24.72;100352.31;5234842;27;33449;-93
2021/03/04 10:10:32;;;;;;;;;;;;;;;18.89;24.80;100361.28;5216942;27;33418;-93
2021/03/04 10:13:07;;;;;;;;;;;;;;;18.89;25.07;100356.00;5233306;27;33117;-94
2021/03/04 10:15:36;;;;;;;;;;;;;;;18.48;25.63;100364.38;5233384;27;32928;-93
2021/03/04 10:18:06;;;;;;;;;;;;;;;19.25;24.65;100354.03;5234408;27;33507;-91
2021/03/04 10:20:34;;;;;;;;;;;;;;;19.62;24.31;100350.09;5252365;27;34221;-94
2021/03/04 10:23:03;;;;;;;;;;;;;;;19.86;23.98;100349.59;5234671;27;32156;-93
2021/03/04 10:25:31;;;;;;;;;;;;;;;19.63;24.35;100349.16;5235387;27;32599;-92
2021/03/04 10:27:59;;;;;;;;;;;;;;;19.64;24.25;100350.03;5255723;27;33393;-92
2021/03/04 10:30:27;;;;;;;;;;;;;;;19.77;23.97;100345.69;5239068;27;34244;-93
2021/03/04 10:32:55;;;;;;;;;;;;;;;19.94;23.73;100346.50;5234370;27;32683;-93
2021/03/04 10:35:26;;;;;;;;;;;;;;;20.08;23.59;100333.28;5224757;27;33115;-92
2021/03/04 10:37:54;;;;;;;;;;;;;;;20.05;23.67;100335.25;5235959;27;33075;-92
2021/03/04 10:40:22;;;;;;;;;;;;;;;20.23;23.40;100335.94;5234242;27;33135;-88
2021/03/04 10:42:49;;;;;;;;;;;;;;;21.25;22.16;100330.31;5232698;27;32273;-87
2021/03/04 10:45:17;;;;;;;;;;;;;;;21.30;22.19;100328.22;5249822;27;35014;-91
2021/03/04 10:47:45;;;;;;;;;;;;;;;21.43;21.96;100319.44;5230776;27;34443;-91
2021/03/04 10:50:14;;;;;;;;;;;;;;;21.19;21.97;100326.28;5230606;27;32906;-93
2021/03/04 10:52:42;;;;;;;;;;;;;;;21.43;21.76;100327.38;5229761;27;33552;-91
2021/03/04 10:55:09;;;;;;;;;;;;;;;20.95;22.55;100322.59;5247919;27;33842;-90
2021/03/04 10:57:38;;;;;;;;;;;;;;;21.39;21.98;100328.56;5214869;27;34335;-92
2021/03/04 11:00:07;;;;;;;;;;;;;;;21.97;21.30;100324.59;5254780;27;33944;-93
2021/03/04 11:02:36;;;;;;;;;;;;;;;21.84;21.14;100316.66;5244062;27;32253;-93
2021/03/04 11:05:05;;;;;;;;;;;;;;;20.95;21.76;100318.13;5251007;27;32965;-96
2021/03/04 11:11:03;;;;;;;;;;;;;;;21.81;20.99;100310.72;5274586;27;20041;-89
2021/03/04 11:13:30;;;;;;;;;;;;;;;21.43;21.50;100301.75;5219975;27;32474;-90
2021/03/04 11:16:00;;;;;;;;;;;;;;;21.93;20.95;100301.91;5247730;27;33092;-91
2021/03/04 11:18:28;;;;;;;;;;;;;;;21.89;20.82;100297.75;5243503;27;35436;-89
2021/03/04 11:20:57;;;;;;;;;;;;;;;22.11;20.33;100293.59;5261084;27;33555;-93
2021/03/04 11:23:24;;;;;;;;;;;;;;;22.07;20.50;100292.13;5225792;27;32399;-93
2021/03/04 11:25:59;;;;;;;;;;;;;;;22.18;20.27;100286.91;5223549;27;32820;-94
2021/03/04 11:28:29;;;;;;;;;;;;;;;21.87;20.48;100282.91;5247641;27;34020;-95
2021/03/04 11:30:56;;;;;;;;;;;;;;;21.01;21.37;100277.16;5282520;27;33008;-94
2021/03/04 11:33:24;;;;;;;;;;;;;;;21.92;20.44;100278.97;5281321;27;33159;-94
2021/03/04 11:35:52;;;;;;;;;;;;;;;21.79;20.58;100273.69;5262794;27;32872;-95
2021/03/04 11:38:20;;;;;;;;;;;;;;;22.29;20.02;100264.91;5280916;27;34550;-93
2021/03/04 11:40:47;;;;;;;;;;;;;;;22.56;19.65;100262.09;5261289;27;33643;-94
2021/03/04 11:43:14;;;;;;;;;;;;;;;22.21;19.98;100257.50;5279594;27;33318;-95
2021/03/04 11:45:42;;;;;;;;;;;;;;;21.55;20.73;100251.53;5262545;27;33425;-91
2021/03/04 11:48:11;;;;;;;;;;;;;;;21.89;20.45;100247.37;5261351;27;33059;-93
2021/03/04 11:50:40;;;;;;;;;;;;;;;21.65;20.90;100248.13;5261763;27;33271;-86
2021/03/04 11:53:07;;;;;;;;;;;;;;;21.88;20.63;100250.97;5280068;27;33116;-92
2021/03/04 11:55:37;;;;;;;;;;;;;;;21.73;20.74;100247.59;5263224;27;34278;-95
2021/03/04 11:58:06;;;;;;;;;;;;;;;21.02;21.65;100237.31;5263270;27;32782;-94
2021/03/04 12:00:34;;;;;;;;;;;;;;;21.54;21.10;100239.22;5282003;27;32839;-94
2021/03/04 12:03:03;;;;;;;;;;;;;;;21.40;21.36;100237.50;5263834;27;32876;-93
2021/03/04 12:05:31;;;;;;;;;;;;;;;21.57;21.20;100237.22;5280034;27;33485;-94
2021/03/04 12:07:58;;;;;;;;;;;;;;;21.06;21.65;100231.81;5261916;27;32938;-94
2021/03/04 12:10:28;;;;;;;;;;;;;;;22.07;20.60;100231.97;5281077;27;33938;-96
2021/03/04 12:12:55;;;;;;;;;;;;;;;22.60;19.96;100226.41;5262446;27;32391;-95
2021/03/04 12:15:23;;;;;;;;;;;;;;;21.98;20.67;100222.84;5263406;27;33834;-94
2021/03/04 12:17:59;;;;;;;;;;;;;;;21.44;21.35;100218.59;5281361;27;33986;-93
2021/03/04 12:20:28;;;;;;;;;;;;;;;21.38;21.54;100218.19;5261400;27;33089;-94
2021/03/04 12:22:55;;;;;;;;;;;;;;;21.79;21.01;100217.13;5261490;27;32157;-92
2021/03/04 12:25:23;;;;;;;;;;;;;;;21.75;21.11;100213.00;5261105;27;33422;-94
2021/03/04 12:27:54;;;;;;;;;;;;;;;22.50;20.24;100209.44;5261687;27;33112;-93
2021/03/04 12:30:37;;;;;;;;;;;;;;;22.67;20.07;100198.41;5266206;27;34400;-93
2021/03/04 12:33:09;;;;;;;;;;;;;;;22.18;20.68;100196.69;5262676;27;33033;-93
2021/03/04 12:35:37;;;;;;;;;;;;;;;21.93;20.99;100198.44;5261083;27;33197;-92
2021/03/04 12:38:04;;;;;;;;;;;;;;;22.17;20.75;100193.16;5260732;27;33181;-92
2021/03/04 12:40:34;;;;;;;;;;;;;;;22.85;20.02;100195.34;5260889;27;32803;-94
2021/03/04 12:43:04;;;;;;;;;;;;;;;22.55;20.29;100195.81;5279134;27;32244;-94
2021/03/04 12:45:32;;;;;;;;;;;;;;;22.58;20.34;100192.97;5260732;27;32811;-93
2021/03/04 12:48:01;;;;;;;;;;;;;;;22.74;20.24;100184.69;5279314;27;33885;-92
2021/03/04 12:50:29;;;;;;;;;;;;;;;22.75;20.32;100179.25;5260924;27;32542;-93
2021/03/04 12:53:01;;;;;;;;;;;;;;;22.63;20.49;100183.69;5260528;27;33162;-90
2021/03/04 12:55:29;;;;;;;;;;;;;;;22.57;20.73;100180.63;5278137;27;34110;-91
2021/03/04 12:57:56;;;;;;;;;;;;;;;22.96;20.31;100179.44;5277406;27;34712;-91
2021/03/04 13:00:23;;;;;;;;;;;;;;;23.12;20.15;100178.25;5277287;27;34663;-93
2021/03/04 13:02:52;;;;;;;;;;;;;;;23.31;19.96;100170.59;5278140;27;33494;-93